sensor_id;sensor_type;location;lat;lon;timestamp;P1;durP1;ratioP1;P2;durP2;ratioP2
26474;SDS011;14161;52.270;10.334;2023-05-07T16:53:36;4.80;;;4.00;;
26474;SDS011;14161;52.270;10.334;2023-05-07T16:56:05;5.30;;;4.80;;
26474;SDS011;14161;52.270;10.334;2023-05-07T16:58:33;5.75;;;4.85;;
26474;SDS011;14161;52.270;10.334;2023-05-07T17:01:00;4.72;;;4.22;;
26474;SDS011;14161;52.270;10.334;2023-05-07T17:03:27;5.85;;;4.50;;
26474;SDS011;14161;52.270;10.334;2023-05-07T17:06:03;4.85;;;4.35;;
26474;SDS011;14161;52.270;10.334;2023-05-07T17:08:29;5.90;;;4.93;;
26474;SDS011;14161;52.270;10.334;2023-05-07T17:10:55;5.10;;;4.60;;
26474;SDS011;14161;52.270;10.334;2023-05-07T17:13:23;5.60;;;4.70;;
26474;SDS011;14161;52.270;10.334;2023-05-07T17:15:48;8.50;;;5.45;;
26474;SDS011;14161;52.270;10.334;2023-05-07T17:18:14;5.63;;;5.00;;
26474;SDS011;14161;52.270;10.334;2023-05-07T17:20:40;5.75;;;5.05;;
26474;SDS011;14161;52.270;10.334;2023-05-07T17:23:05;7.43;;;5.50;;
26474;SDS011;14161;52.270;10.334;2023-05-07T17:25:31;6.30;;;5.32;;
26474;SDS011;14161;52.270;10.334;2023-05-07T17:27:58;5.32;;;4.82;;
26474;SDS011;14161;52.270;10.334;2023-05-07T17:30:24;10.00;;;6.68;;
26474;SDS011;14161;52.270;10.334;2023-05-07T17:32:49;6.30;;;5.25;;
26474;SDS011;14161;52.270;10.334;2023-05-07T17:35:18;7.47;;;4.95;;
26474;SDS011;14161;52.270;10.334;2023-05-07T17:37:46;8.43;;;5.53;;
26474;SDS011;14161;52.270;10.334;2023-05-07T17:40:17;6.55;;;5.60;;
26474;SDS011;14161;52.270;10.334;2023-05-07T17:42:48;7.25;;;5.72;;
26474;SDS011;14161;52.270;10.334;2023-05-07T17:45:15;6.82;;;5.55;;
26474;SDS011;14161;52.270;10.334;2023-05-07T17:47:43;7.28;;;6.07;;
26474;SDS011;14161;52.270;10.334;2023-05-07T17:53:04;5.47;;;4.97;;
26474;SDS011;14161;52.270;10.334;2023-05-07T17:56:04;7.82;;;6.28;;
26474;SDS011;14161;52.270;10.334;2023-05-07T17:58:36;6.05;;;4.88;;
26474;SDS011;14161;52.270;10.334;2023-05-07T18:01:14;5.30;;;4.80;;
26474;SDS011;14161;52.270;10.334;2023-05-07T18:03:40;7.75;;;4.90;;
26474;SDS011;14161;52.270;10.334;2023-05-07T18:06:09;6.53;;;5.00;;
26474;SDS011;14161;52.270;10.334;2023-05-07T18:08:37;5.55;;;4.95;;
26474;SDS011;14161;52.270;10.334;2023-05-07T18:11:06;5.78;;;5.18;;
26474;SDS011;14161;52.270;10.334;2023-05-07T18:24:58;4.15;;;3.60;;
26474;SDS011;14161;52.270;10.334;2023-05-07T18:36:19;4.78;;;4.25;;
26474;SDS011;14161;52.270;10.334;2023-05-07T18:39:01;4.85;;;3.92;;
26474;SDS011;14161;52.270;10.334;2023-05-07T18:44:50;4.13;;;3.72;;
26474;SDS011;14161;52.270;10.334;2023-05-07T18:51:59;9.18;;;5.95;;
26474;SDS011;14161;52.270;10.334;2023-05-07T18:55:16;5.57;;;4.25;;
26474;SDS011;14161;52.270;10.334;2023-05-07T18:58:42;4.38;;;3.50;;
26474;SDS011;14161;52.270;10.334;2023-05-07T19:09:29;4.32;;;3.60;;
26474;SDS011;14161;52.270;10.334;2023-05-07T19:12:44;3.85;;;3.45;;
26474;SDS011;14161;52.270;10.334;2023-05-07T19:15:22;4.55;;;4.03;;
26474;SDS011;14161;52.270;10.334;2023-05-07T19:17:48;4.10;;;3.60;;
26474;SDS011;14161;52.270;10.334;2023-05-07T19:20:14;4.93;;;4.35;;
26474;SDS011;14161;52.270;10.334;2023-05-07T19:22:40;6.07;;;4.00;;
26474;SDS011;14161;52.270;10.334;2023-05-07T19:25:06;6.88;;;4.78;;
26474;SDS011;14161;52.270;10.334;2023-05-07T19:27:35;5.50;;;4.95;;
26474;SDS011;14161;52.270;10.334;2023-05-07T19:30:00;6.47;;;5.57;;
26474;SDS011;14161;52.270;10.334;2023-05-07T19:32:30;6.25;;;5.07;;
26474;SDS011;14161;52.270;10.334;2023-05-07T19:34:55;7.32;;;5.68;;
26474;SDS011;14161;52.270;10.334;2023-05-07T19:37:21;5.75;;;5.10;;
26474;SDS011;14161;52.270;10.334;2023-05-07T19:39:49;7.20;;;5.88;;
26474;SDS011;14161;52.270;10.334;2023-05-07T19:42:16;6.18;;;5.57;;
26474;SDS011;14161;52.270;10.334;2023-05-07T19:44:41;6.20;;;5.05;;
26474;SDS011;14161;52.270;10.334;2023-05-07T19:47:09;7.03;;;6.32;;
26474;SDS011;14161;52.270;10.334;2023-05-07T19:49:36;6.05;;;5.43;;
26474;SDS011;14161;52.270;10.334;2023-05-07T19:52:01;6.40;;;5.20;;
26474;SDS011;14161;52.270;10.334;2023-05-07T19:54:30;4.93;;;4.32;;
26474;SDS011;14161;52.270;10.334;2023-05-07T19:56:56;6.82;;;6.00;;
26474;SDS011;14161;52.270;10.334;2023-05-07T19:59:22;6.75;;;5.13;;
26474;SDS011;14161;52.270;10.334;2023-05-07T20:02:05;5.47;;;4.93;;
26474;SDS011;14161;52.270;10.334;2023-05-07T20:04:34;5.63;;;4.70;;
26474;SDS011;14161;52.270;10.334;2023-05-07T20:07:02;5.90;;;4.47;;
26474;SDS011;14161;52.270;10.334;2023-05-07T20:09:33;6.18;;;5.00;;
26474;SDS011;14161;52.270;10.334;2023-05-07T20:11:58;5.40;;;4.78;;
26474;SDS011;14161;52.270;10.334;2023-05-07T20:14:24;7.57;;;5.43;;
26474;SDS011;14161;52.270;10.334;2023-05-07T20:16:50;9.80;;;5.85;;
26474;SDS011;14161;52.270;10.334;2023-05-07T20:19:16;5.78;;;5.18;;
26474;SDS011;14161;52.270;10.334;2023-05-07T20:21:42;6.00;;;5.15;;
26474;SDS011;14161;52.270;10.334;2023-05-07T20:24:08;5.32;;;4.32;;
26474;SDS011;14161;52.270;10.334;2023-05-07T20:26:34;6.18;;;4.95;;
26474;SDS011;14161;52.270;10.334;2023-05-07T20:29:00;5.00;;;4.35;;
26474;SDS011;14161;52.270;10.334;2023-05-07T20:31:25;7.28;;;5.88;;
26474;SDS011;14161;52.270;10.334;2023-05-07T20:33:51;7.72;;;6.63;;
26474;SDS011;14161;52.270;10.334;2023-05-07T20:36:16;7.57;;;6.30;;
26474;SDS011;14161;52.270;10.334;2023-05-07T20:38:45;6.22;;;5.55;;
26474;SDS011;14161;52.270;10.334;2023-05-07T20:41:11;8.60;;;6.55;;
26474;SDS011;14161;52.270;10.334;2023-05-07T20:43:38;7.53;;;6.45;;
26474;SDS011;14161;52.270;10.334;2023-05-07T20:46:03;8.65;;;7.47;;
26474;SDS011;14161;52.270;10.334;2023-05-07T20:48:31;7.13;;;6.43;;
26474;SDS011;14161;52.270;10.334;2023-05-07T20:50:57;10.43;;;7.38;;
26474;SDS011;14161;52.270;10.334;2023-05-07T20:53:23;7.25;;;5.90;;
26474;SDS011;14161;52.270;10.334;2023-05-07T20:55:49;5.57;;;5.00;;
26474;SDS011;14161;52.270;10.334;2023-05-07T20:58:15;7.15;;;5.88;;
26474;SDS011;14161;52.270;10.334;2023-05-07T21:00:42;6.25;;;5.43;;
26474;SDS011;14161;52.270;10.334;2023-05-07T21:03:07;7.13;;;5.75;;
26474;SDS011;14161;52.270;10.334;2023-05-07T21:05:33;6.07;;;5.22;;
26474;SDS011;14161;52.270;10.334;2023-05-07T21:07:59;5.95;;;5.32;;
26474;SDS011;14161;52.270;10.334;2023-05-07T21:10:31;7.43;;;6.28;;
26474;SDS011;14161;52.270;10.334;2023-05-07T21:12:56;6.32;;;4.63;;
26474;SDS011;14161;52.270;10.334;2023-05-07T21:15:22;6.25;;;4.93;;
26474;SDS011;14161;52.270;10.334;2023-05-07T21:17:50;6.85;;;5.45;;
26474;SDS011;14161;52.270;10.334;2023-05-07T21:20:16;7.00;;;6.28;;
26474;SDS011;14161;52.270;10.334;2023-05-07T21:22:41;8.23;;;6.80;;
26474;SDS011;14161;52.270;10.334;2023-05-07T21:25:07;7.55;;;6.38;;
26474;SDS011;14161;52.270;10.334;2023-05-07T21:27:33;7.53;;;6.70;;
26474;SDS011;14161;52.270;10.334;2023-05-07T21:29:59;7.65;;;6.53;;
26474;SDS011;14161;52.270;10.334;2023-05-07T21:32:29;7.97;;;6.47;;
26474;SDS011;14161;52.270;10.334;2023-05-07T21:34:54;7.63;;;6.50;;
26474;SDS011;14161;52.270;10.334;2023-05-07T21:37:20;8.77;;;6.88;;
26474;SDS011;14161;52.270;10.334;2023-05-07T21:39:45;7.55;;;6.40;;
26474;SDS011;14161;52.270;10.334;2023-05-07T21:42:11;9.02;;;6.15;;
26474;SDS011;14161;52.270;10.334;2023-05-07T21:44:36;6.82;;;6.03;;
26474;SDS011;14161;52.270;10.334;2023-05-07T21:47:02;7.80;;;7.00;;
26474;SDS011;14161;52.270;10.334;2023-05-07T21:49:27;6.75;;;5.88;;
26474;SDS011;14161;52.270;10.334;2023-05-07T21:51:53;6.05;;;5.22;;
26474;SDS011;14161;52.270;10.334;2023-05-07T21:54:18;9.07;;;7.57;;
26474;SDS011;14161;52.270;10.334;2023-05-07T21:56:44;8.55;;;7.35;;
26474;SDS011;14161;52.270;10.334;2023-05-07T21:59:09;6.88;;;5.78;;
26474;SDS011;14161;52.270;10.334;2023-05-07T22:01:35;6.80;;;5.97;;
26474;SDS011;14161;52.270;10.334;2023-05-07T22:04:00;6.65;;;5.95;;
26474;SDS011;14161;52.270;10.334;2023-05-07T22:06:25;6.95;;;6.15;;
26474;SDS011;14161;52.270;10.334;2023-05-07T22:08:51;8.93;;;7.43;;
26474;SDS011;14161;52.270;10.334;2023-05-07T22:11:16;6.70;;;5.97;;
26474;SDS011;14161;52.270;10.334;2023-05-07T22:13:42;7.10;;;5.78;;
26474;SDS011;14161;52.270;10.334;2023-05-07T22:16:07;6.35;;;5.57;;
26474;SDS011;14161;52.270;10.334;2023-05-07T22:18:33;7.35;;;6.45;;
26474;SDS011;14161;52.270;10.334;2023-05-07T22:20:58;7.20;;;6.32;;
26474;SDS011;14161;52.270;10.334;2023-05-07T22:23:24;8.10;;;6.03;;
26474;SDS011;14161;52.270;10.334;2023-05-07T22:25:50;6.25;;;5.32;;
26474;SDS011;14161;52.270;10.334;2023-05-07T22:28:15;9.25;;;6.78;;
26474;SDS011;14161;52.270;10.334;2023-05-07T22:30:41;8.55;;;7.25;;
26474;SDS011;14161;52.270;10.334;2023-05-07T22:33:06;8.95;;;7.20;;
26474;SDS011;14161;52.270;10.334;2023-05-07T22:35:32;7.82;;;6.55;;
26474;SDS011;14161;52.270;10.334;2023-05-07T22:37:57;6.18;;;5.50;;
26474;SDS011;14161;52.270;10.334;2023-05-07T22:40:23;7.57;;;6.68;;
26474;SDS011;14161;52.270;10.334;2023-05-07T22:42:48;6.22;;;5.63;;
26474;SDS011;14161;52.270;10.334;2023-05-07T22:45:16;7.10;;;5.43;;
26474;SDS011;14161;52.270;10.334;2023-05-07T22:47:42;6.47;;;5.82;;
26474;SDS011;14161;52.270;10.334;2023-05-07T22:50:07;6.75;;;6.05;;
26474;SDS011;14161;52.270;10.334;2023-05-07T22:52:33;7.72;;;6.47;;
26474;SDS011;14161;52.270;10.334;2023-05-07T22:54:58;7.93;;;7.13;;
26474;SDS011;14161;52.270;10.334;2023-05-07T22:57:24;7.63;;;6.55;;
26474;SDS011;14161;52.270;10.334;2023-05-07T22:59:55;7.07;;;6.20;;
26474;SDS011;14161;52.270;10.334;2023-05-07T23:02:21;8.02;;;7.15;;
26474;SDS011;14161;52.270;10.334;2023-05-07T23:04:47;7.22;;;6.50;;
26474;SDS011;14161;52.270;10.334;2023-05-07T23:07:12;8.55;;;7.53;;
26474;SDS011;14161;52.270;10.334;2023-05-07T23:09:38;7.45;;;6.47;;
26474;SDS011;14161;52.270;10.334;2023-05-07T23:12:03;9.57;;;7.72;;
26474;SDS011;14161;52.270;10.334;2023-05-07T23:14:29;8.90;;;7.57;;
26474;SDS011;14161;52.270;10.334;2023-05-07T23:16:55;10.30;;;6.32;;
26474;SDS011;14161;52.270;10.334;2023-05-07T23:19:21;7.45;;;6.30;;
26474;SDS011;14161;52.270;10.334;2023-05-07T23:21:47;6.70;;;6.00;;
26474;SDS011;14161;52.270;10.334;2023-05-07T23:24:12;8.18;;;7.00;;
26474;SDS011;14161;52.270;10.334;2023-05-07T23:26:37;6.97;;;6.07;;
26474;SDS011;14161;52.270;10.334;2023-05-07T23:29:03;7.57;;;6.85;;
26474;SDS011;14161;52.270;10.334;2023-05-07T23:31:29;6.20;;;5.60;;
26474;SDS011;14161;52.270;10.334;2023-05-07T23:33:54;7.40;;;6.50;;
26474;SDS011;14161;52.270;10.334;2023-05-07T23:36:20;8.82;;;7.30;;
26474;SDS011;14161;52.270;10.334;2023-05-07T23:38:46;9.57;;;8.18;;
26474;SDS011;14161;52.270;10.334;2023-05-07T23:41:11;13.68;;;11.13;;
26474;SDS011;14161;52.270;10.334;2023-05-07T23:43:37;9.60;;;8.60;;
26474;SDS011;14161;52.270;10.334;2023-05-07T23:46:02;8.98;;;7.47;;
26474;SDS011;14161;52.270;10.334;2023-05-07T23:48:28;9.75;;;8.75;;
26474;SDS011;14161;52.270;10.334;2023-05-07T23:50:53;10.25;;;8.95;;
26474;SDS011;14161;52.270;10.334;2023-05-07T23:53:19;8.50;;;7.30;;
26474;SDS011;14161;52.270;10.334;2023-05-07T23:55:44;9.63;;;8.32;;
26474;SDS011;14161;52.270;10.334;2023-05-07T23:58:10;8.70;;;7.22;;
